sensor_id;sensor_type;location;lat;lon;timestamp;temperature;humidity
52107;DHT22;38105;52.968;5.974;2024-01-30T00:02:13;6.30;99.90
52107;DHT22;38105;52.968;5.974;2024-01-30T00:04:38;6.40;99.90
52107;DHT22;38105;52.968;5.974;2024-01-30T00:07:04;6.40;99.90
52107;DHT22;38105;52.968;5.974;2024-01-30T00:09:29;6.40;99.90
52107;DHT22;38105;52.968;5.974;2024-01-30T00:11:55;6.10;99.90
52107;DHT22;38105;52.968;5.974;2024-01-30T00:14:20;6.00;99.90
52107;DHT22;38105;52.968;5.974;2024-01-30T00:16:46;6.40;99.90
52107;DHT22;38105;52.968;5.974;2024-01-30T00:19:11;6.30;99.90
52107;DHT22;38105;52.968;5.974;2024-01-30T00:21:37;6.00;99.90
52107;DHT22;38105;52.968;5.974;2024-01-30T00:24:03;6.40;99.90
52107;DHT22;38105;52.968;5.974;2024-01-30T00:26:28;6.10;99.90
52107;DHT22;38105;52.968;5.974;2024-01-30T00:28:54;6.40;99.90
52107;DHT22;38105;52.968;5.974;2024-01-30T00:31:19;6.30;99.90
52107;DHT22;38105;52.968;5.974;2024-01-30T00:33:45;6.00;99.90
52107;DHT22;38105;52.968;5.974;2024-01-30T00:36:10;6.30;99.90
52107;DHT22;38105;52.968;5.974;2024-01-30T00:38:36;6.00;99.90
52107;DHT22;38105;52.968;5.974;2024-01-30T00:41:02;6.00;99.90
52107;DHT22;38105;52.968;5.974;2024-01-30T00:43:28;6.10;99.90
52107;DHT22;38105;52.968;5.974;2024-01-30T00:45:54;6.10;99.90
52107;DHT22;38105;52.968;5.974;2024-01-30T00:48:19;6.20;99.90
52107;DHT22;38105;52.968;5.974;2024-01-30T00:50:45;6.40;99.90
52107;DHT22;38105;52.968;5.974;2024-01-30T00:53:11;6.20;99.90
52107;DHT22;38105;52.968;5.974;2024-01-30T00:55:36;6.60;99.90
52107;DHT22;38105;52.968;5.974;2024-01-30T00:58:02;6.70;99.90
52107;DHT22;38105;52.968;5.974;2024-01-30T01:00:28;6.60;99.90
52107;DHT22;38105;52.968;5.974;2024-01-30T01:02:55;6.20;99.90
52107;DHT22;38105;52.968;5.974;2024-01-30T01:05:39;6.50;99.90
52107;DHT22;38105;52.968;5.974;2024-01-30T01:14:42;6.20;99.90
52107;DHT22;38105;52.968;5.974;2024-01-30T01:17:08;6.20;99.90
52107;DHT22;38105;52.968;5.974;2024-01-30T01:19:34;6.10;99.90
52107;DHT22;38105;52.968;5.974;2024-01-30T01:21:59;6.10;99.90
52107;DHT22;38105;52.968;5.974;2024-01-30T01:24:25;6.40;99.90
52107;DHT22;38105;52.968;5.974;2024-01-30T01:26:50;6.10;99.90
52107;DHT22;38105;52.968;5.974;2024-01-30T01:29:16;6.50;99.90
52107;DHT22;38105;52.968;5.974;2024-01-30T01:31:41;6.20;99.90
52107;DHT22;38105;52.968;5.974;2024-01-30T01:34:11;6.60;99.90
52107;DHT22;38105;52.968;5.974;2024-01-30T01:36:36;6.50;99.90
52107;DHT22;38105;52.968;5.974;2024-01-30T01:39:02;6.50;99.90
52107;DHT22;38105;52.968;5.974;2024-01-30T01:41:33;6.20;99.90
52107;DHT22;38105;52.968;5.974;2024-01-30T01:43:59;6.40;99.90
52107;DHT22;38105;52.968;5.974;2024-01-30T01:46:29;6.40;99.90
52107;DHT22;38105;52.968;5.974;2024-01-30T01:48:55;6.50;99.90
52107;DHT22;38105;52.968;5.974;2024-01-30T01:51:22;6.50;99.90
52107;DHT22;38105;52.968;5.974;2024-01-30T01:53:47;6.20;99.90
52107;DHT22;38105;52.968;5.974;2024-01-30T01:56:13;6.50;99.90
52107;DHT22;38105;52.968;5.974;2024-01-30T01:58:39;6.00;99.90
52107;DHT22;38105;52.968;5.974;2024-01-30T02:01:05;6.40;99.90
52107;DHT22;38105;52.968;5.974;2024-01-30T02:03:32;6.00;99.90
52107;DHT22;38105;52.968;5.974;2024-01-30T02:05:58;6.40;99.90
52107;DHT22;38105;52.968;5.974;2024-01-30T02:08:24;6.10;99.90
52107;DHT22;38105;52.968;5.974;2024-01-30T02:10:49;6.10;99.90
52107;DHT22;38105;52.968;5.974;2024-01-30T02:13:15;6.40;99.90
52107;DHT22;38105;52.968;5.974;2024-01-30T02:15:40;6.30;99.90
52107;DHT22;38105;52.968;5.974;2024-01-30T02:18:06;6.00;99.90
52107;DHT22;38105;52.968;5.974;2024-01-30T02:20:32;5.90;99.90
52107;DHT22;38105;52.968;5.974;2024-01-30T02:22:59;6.20;99.90
52107;DHT22;38105;52.968;5.974;2024-01-30T02:25:39;6.10;99.90
52107;DHT22;38105;52.968;5.974;2024-01-30T02:28:12;6.30;99.90
52107;DHT22;38105;52.968;5.974;2024-01-30T02:30:44;6.20;99.90
52107;DHT22;38105;52.968;5.974;2024-01-30T02:33:10;5.90;99.90
52107;DHT22;38105;52.968;5.974;2024-01-30T02:35:35;6.00;99.90
52107;DHT22;38105;52.968;5.974;2024-01-30T02:38:01;6.30;99.90
52107;DHT22;38105;52.968;5.974;2024-01-30T02:40:26;6.10;99.90
52107;DHT22;38105;52.968;5.974;2024-01-30T02:42:52;5.90;99.90
52107;DHT22;38105;52.968;5.974;2024-01-30T02:45:17;6.40;99.90
52107;DHT22;38105;52.968;5.974;2024-01-30T02:47:43;6.10;99.90
52107;DHT22;38105;52.968;5.974;2024-01-30T02:50:09;5.90;99.90
52107;DHT22;38105;52.968;5.974;2024-01-30T02:52:34;5.90;99.90
52107;DHT22;38105;52.968;5.974;2024-01-30T02:55:00;6.50;99.90
52107;DHT22;38105;52.968;5.974;2024-01-30T02:57:26;6.10;99.90
52107;DHT22;38105;52.968;5.974;2024-01-30T02:59:51;6.50;99.90
52107;DHT22;38105;52.968;5.974;2024-01-30T03:02:17;6.20;99.90
52107;DHT22;38105;52.968;5.974;2024-01-30T03:04:43;6.50;99.90
52107;DHT22;38105;52.968;5.974;2024-01-30T03:07:09;6.60;99.90
52107;DHT22;38105;52.968;5.974;2024-01-30T03:09:34;6.40;99.90
52107;DHT22;38105;52.968;5.974;2024-01-30T03:12:00;6.30;99.90
52107;DHT22;38105;52.968;5.974;2024-01-30T03:14:26;6.30;99.90
52107;DHT22;38105;52.968;5.974;2024-01-30T03:16:51;6.50;99.90
52107;DHT22;38105;52.968;5.974;2024-01-30T03:19:17;6.20;99.90
52107;DHT22;38105;52.968;5.974;2024-01-30T03:21:44;6.30;99.90
52107;DHT22;38105;52.968;5.974;2024-01-30T03:24:09;6.60;99.90
52107;DHT22;38105;52.968;5.974;2024-01-30T03:26:35;6.70;99.90
52107;DHT22;38105;52.968;5.974;2024-01-30T03:29:01;6.30;99.90
52107;DHT22;38105;52.968;5.974;2024-01-30T03:31:26;6.70;99.90
52107;DHT22;38105;52.968;5.974;2024-01-30T03:33:52;6.40;99.90
52107;DHT22;38105;52.968;5.974;2024-01-30T03:36:17;6.80;99.90
52107;DHT22;38105;52.968;5.974;2024-01-30T03:38:43;6.70;99.90
52107;DHT22;38105;52.968;5.974;2024-01-30T03:41:09;6.50;99.90
52107;DHT22;38105;52.968;5.974;2024-01-30T03:43:35;6.70;99.90
52107;DHT22;38105;52.968;5.974;2024-01-30T03:46:01;6.80;99.90
52107;DHT22;38105;52.968;5.974;2024-01-30T03:48:26;6.90;99.90
52107;DHT22;38105;52.968;5.974;2024-01-30T03:50:52;6.80;99.90
52107;DHT22;38105;52.968;5.974;2024-01-30T03:53:18;6.50;99.90
52107;DHT22;38105;52.968;5.974;2024-01-30T03:55:43;6.80;99.90
52107;DHT22;38105;52.968;5.974;2024-01-30T03:58:09;6.80;99.90
52107;DHT22;38105;52.968;5.974;2024-01-30T04:00:34;6.80;99.90
52107;DHT22;38105;52.968;5.974;2024-01-30T04:03:00;6.70;99.90
52107;DHT22;38105;52.968;5.974;2024-01-30T04:05:26;6.70;99.90
52107;DHT22;38105;52.968;5.974;2024-01-30T04:07:51;6.80;99.90
52107;DHT22;38105;52.968;5.974;2024-01-30T04:10:17;6.70;99.90
52107;DHT22;38105;52.968;5.974;2024-01-30T04:12:42;6.50;99.90
52107;DHT22;38105;52.968;5.974;2024-01-30T04:15:08;6.60;99.90
52107;DHT22;38105;52.968;5.974;2024-01-30T04:17:33;6.70;99.90
52107;DHT22;38105;52.968;5.974;2024-01-30T04:19:59;6.70;99.90
52107;DHT22;38105;52.968;5.974;2024-01-30T04:22:24;6.40;99.90
52107;DHT22;38105;52.968;5.974;2024-01-30T04:24:50;6.70;99.90
52107;DHT22;38105;52.968;5.974;2024-01-30T04:27:15;6.60;99.90
52107;DHT22;38105;52.968;5.974;2024-01-30T04:29:41;6.80;99.90
52107;DHT22;38105;52.968;5.974;2024-01-30T04:32:07;6.60;99.90
52107;DHT22;38105;52.968;5.974;2024-01-30T04:34:32;6.70;99.90
52107;DHT22;38105;52.968;5.974;2024-01-30T04:36:58;6.60;99.90
52107;DHT22;38105;52.968;5.974;2024-01-30T04:39:23;6.50;99.90
52107;DHT22;38105;52.968;5.974;2024-01-30T04:41:49;6.50;99.90
52107;DHT22;38105;52.968;5.974;2024-01-30T04:44:14;6.60;99.90
52107;DHT22;38105;52.968;5.974;2024-01-30T04:46:40;6.70;99.90
52107;DHT22;38105;52.968;5.974;2024-01-30T04:49:05;6.40;99.90
52107;DHT22;38105;52.968;5.974;2024-01-30T04:51:33;6.50;99.90
52107;DHT22;38105;52.968;5.974;2024-01-30T04:53:58;6.80;99.90
52107;DHT22;38105;52.968;5.974;2024-01-30T04:56:24;6.50;99.90
52107;DHT22;38105;52.968;5.974;2024-01-30T04:58:49;6.60;99.90
52107;DHT22;38105;52.968;5.974;2024-01-30T05:01:15;6.50;99.90
52107;DHT22;38105;52.968;5.974;2024-01-30T05:03:41;6.70;99.90
52107;DHT22;38105;52.968;5.974;2024-01-30T05:06:07;6.80;99.90
52107;DHT22;38105;52.968;5.974;2024-01-30T05:08:32;6.90;99.90
52107;DHT22;38105;52.968;5.974;2024-01-30T05:11:01;6.70;99.90
52107;DHT22;38105;52.968;5.974;2024-01-30T05:13:27;6.80;99.90
52107;DHT22;38105;52.968;5.974;2024-01-30T05:15:52;6.70;99.90
52107;DHT22;38105;52.968;5.974;2024-01-30T05:18:18;6.80;99.90
52107;DHT22;38105;52.968;5.974;2024-01-30T05:20:43;6.50;99.90
52107;DHT22;38105;52.968;5.974;2024-01-30T05:23:09;6.80;99.90
52107;DHT22;38105;52.968;5.974;2024-01-30T05:25:34;6.50;99.90
52107;DHT22;38105;52.968;5.974;2024-01-30T05:28:00;6.70;99.90
52107;DHT22;38105;52.968;5.974;2024-01-30T05:30:25;6.70;99.90
52107;DHT22;38105;52.968;5.974;2024-01-30T05:32:51;6.40;99.90
52107;DHT22;38105;52.968;5.974;2024-01-30T05:35:18;6.40;99.90
52107;DHT22;38105;52.968;5.974;2024-01-30T05:37:43;6.40;99.90
52107;DHT22;38105;52.968;5.974;2024-01-30T05:40:09;6.40;99.90
52107;DHT22;38105;52.968;5.974;2024-01-30T05:42:35;6.50;99.90
52107;DHT22;38105;52.968;5.974;2024-01-30T05:45:00;6.50;99.90
52107;DHT22;38105;52.968;5.974;2024-01-30T05:47:26;6.40;99.90
52107;DHT22;38105;52.968;5.974;2024-01-30T05:49:51;6.70;99.90
52107;DHT22;38105;52.968;5.974;2024-01-30T05:52:17;6.40;99.90
52107;DHT22;38105;52.968;5.974;2024-01-30T05:54:44;6.60;99.90
52107;DHT22;38105;52.968;5.974;2024-01-30T05:57:09;6.80;99.90
52107;DHT22;38105;52.968;5.974;2024-01-30T05:59:35;6.50;99.90
52107;DHT22;38105;52.968;5.974;2024-01-30T06:02:01;6.60;99.90
52107;DHT22;38105;52.968;5.974;2024-01-30T06:04:27;6.90;99.90
52107;DHT22;38105;52.968;5.974;2024-01-30T06:06:52;6.80;99.90
52107;DHT22;38105;52.968;5.974;2024-01-30T06:09:18;6.70;99.90
52107;DHT22;38105;52.968;5.974;2024-01-30T06:11:43;6.70;99.90
52107;DHT22;38105;52.968;5.974;2024-01-30T06:14:09;6.80;99.90
52107;DHT22;38105;52.968;5.974;2024-01-30T06:16:34;6.60;99.90
52107;DHT22;38105;52.968;5.974;2024-01-30T06:19:00;7.00;99.90
52107;DHT22;38105;52.968;5.974;2024-01-30T06:21:25;7.00;99.90
52107;DHT22;38105;52.968;5.974;2024-01-30T06:23:51;7.00;99.90
52107;DHT22;38105;52.968;5.974;2024-01-30T06:26:16;6.90;99.90
52107;DHT22;38105;52.968;5.974;2024-01-30T06:28:42;7.00;99.90
52107;DHT22;38105;52.968;5.974;2024-01-30T06:31:08;7.00;99.90
52107;DHT22;38105;52.968;5.974;2024-01-30T06:33:33;6.80;99.90
52107;DHT22;38105;52.968;5.974;2024-01-30T06:35:59;7.00;99.90
52107;DHT22;38105;52.968;5.974;2024-01-30T06:38:24;7.10;99.90
52107;DHT22;38105;52.968;5.974;2024-01-30T06:40:50;6.90;99.90
52107;DHT22;38105;52.968;5.974;2024-01-30T06:43:15;7.10;99.90
52107;DHT22;38105;52.968;5.974;2024-01-30T06:45:41;7.10;99.90
52107;DHT22;38105;52.968;5.974;2024-01-30T06:48:07;7.10;99.90
52107;DHT22;38105;52.968;5.974;2024-01-30T06:50:33;7.10;99.90
52107;DHT22;38105;52.968;5.974;2024-01-30T06:52:58;7.10;99.90
52107;DHT22;38105;52.968;5.974;2024-01-30T06:55:24;6.90;99.90
52107;DHT22;38105;52.968;5.974;2024-01-30T06:57:50;6.90;99.90
52107;DHT22;38105;52.968;5.974;2024-01-30T07:00:15;7.10;99.90
52107;DHT22;38105;52.968;5.974;2024-01-30T07:02:41;6.90;99.90
52107;DHT22;38105;52.968;5.974;2024-01-30T07:05:07;7.00;99.90
52107;DHT22;38105;52.968;5.974;2024-01-30T07:07:33;7.10;99.90
52107;DHT22;38105;52.968;5.974;2024-01-30T07:09:58;6.90;99.90
52107;DHT22;38105;52.968;5.974;2024-01-30T07:12:24;6.90;99.90
52107;DHT22;38105;52.968;5.974;2024-01-30T07:14:52;7.20;99.90
52107;DHT22;38105;52.968;5.974;2024-01-30T07:17:18;7.20;99.90
52107;DHT22;38105;52.968;5.974;2024-01-30T07:19:44;7.10;99.90
52107;DHT22;38105;52.968;5.974;2024-01-30T07:22:09;7.20;99.90
52107;DHT22;38105;52.968;5.974;2024-01-30T07:24:35;7.00;99.90
52107;DHT22;38105;52.968;5.974;2024-01-30T07:27:00;7.10;99.90
52107;DHT22;38105;52.968;5.974;2024-01-30T07:29:26;7.10;99.90
52107;DHT22;38105;52.968;5.974;2024-01-30T07:31:51;7.20;99.90
52107;DHT22;38105;52.968;5.974;2024-01-30T07:34:17;7.20;99.90
52107;DHT22;38105;52.968;5.974;2024-01-30T07:36:43;7.10;99.90
52107;DHT22;38105;52.968;5.974;2024-01-30T07:39:08;7.10;99.90
52107;DHT22;38105;52.968;5.974;2024-01-30T07:41:35;7.30;99.90
52107;DHT22;38105;52.968;5.974;2024-01-30T07:44:00;7.30;99.90
52107;DHT22;38105;52.968;5.974;2024-01-30T07:46:26;7.40;99.90
52107;DHT22;38105;52.968;5.974;2024-01-30T07:48:51;7.30;99.90
52107;DHT22;38105;52.968;5.974;2024-01-30T07:51:17;7.40;99.90
52107;DHT22;38105;52.968;5.974;2024-01-30T07:53:43;7.20;99.90
52107;DHT22;38105;52.968;5.974;2024-01-30T07:56:08;7.20;99.90
52107;DHT22;38105;52.968;5.974;2024-01-30T07:58:34;7.40;99.90
52107;DHT22;38105;52.968;5.974;2024-01-30T08:00:59;7.40;99.90
52107;DHT22;38105;52.968;5.974;2024-01-30T08:03:26;7.20;99.90
52107;DHT22;38105;52.968;5.974;2024-01-30T08:05:51;7.30;99.90
52107;DHT22;38105;52.968;5.974;2024-01-30T08:08:17;7.50;99.90
52107;DHT22;38105;52.968;5.974;2024-01-30T08:10:42;7.40;99.90
52107;DHT22;38105;52.968;5.974;2024-01-30T08:13:08;7.40;99.90
52107;DHT22;38105;52.968;5.974;2024-01-30T08:15:34;7.50;99.90
52107;DHT22;38105;52.968;5.974;2024-01-30T08:18:00;7.30;99.90
52107;DHT22;38105;52.968;5.974;2024-01-30T08:20:25;7.40;99.90
52107;DHT22;38105;52.968;5.974;2024-01-30T08:22:51;7.50;99.90
52107;DHT22;38105;52.968;5.974;2024-01-30T08:25:17;7.70;99.90
52107;DHT22;38105;52.968;5.974;2024-01-30T08:27:42;7.70;99.90
52107;DHT22;38105;52.968;5.974;2024-01-30T08:30:08;7.60;99.90
52107;DHT22;38105;52.968;5.974;2024-01-30T08:32:34;7.80;99.90
52107;DHT22;38105;52.968;5.974;2024-01-30T08:34:59;7.90;99.90
52107;DHT22;38105;52.968;5.974;2024-01-30T08:37:25;7.70;99.90
52107;DHT22;38105;52.968;5.974;2024-01-30T08:39:54;7.70;99.90
52107;DHT22;38105;52.968;5.974;2024-01-30T08:42:19;7.70;99.90
52107;DHT22;38105;52.968;5.974;2024-01-30T08:44:51;7.80;99.90
52107;DHT22;38105;52.968;5.974;2024-01-30T08:47:17;8.00;99.90
52107;DHT22;38105;52.968;5.974;2024-01-30T08:49:44;7.70;99.90
52107;DHT22;38105;52.968;5.974;2024-01-30T08:52:10;7.70;99.90
52107;DHT22;38105;52.968;5.974;2024-01-30T08:54:35;7.80;99.90
52107;DHT22;38105;52.968;5.974;2024-01-30T08:57:01;8.00;99.90
52107;DHT22;38105;52.968;5.974;2024-01-30T08:59:27;8.20;99.90
52107;DHT22;38105;52.968;5.974;2024-01-30T09:01:52;8.00;99.90
52107;DHT22;38105;52.968;5.974;2024-01-30T09:04:20;8.00;99.90
52107;DHT22;38105;52.968;5.974;2024-01-30T09:06:47;8.00;99.90
52107;DHT22;38105;52.968;5.974;2024-01-30T09:09:13;8.30;99.90
52107;DHT22;38105;52.968;5.974;2024-01-30T09:11:39;8.20;99.90
52107;DHT22;38105;52.968;5.974;2024-01-30T09:14:05;8.20;99.90
52107;DHT22;38105;52.968;5.974;2024-01-30T09:16:31;8.30;99.90
52107;DHT22;38105;52.968;5.974;2024-01-30T09:18:56;8.50;99.90
52107;DHT22;38105;52.968;5.974;2024-01-30T09:21:22;8.50;99.90
52107;DHT22;38105;52.968;5.974;2024-01-30T09:23:48;8.40;99.90
52107;DHT22;38105;52.968;5.974;2024-01-30T09:26:14;8.40;99.90
52107;DHT22;38105;52.968;5.974;2024-01-30T09:28:39;8.40;99.90
52107;DHT22;38105;52.968;5.974;2024-01-30T09:31:09;8.40;99.90
52107;DHT22;38105;52.968;5.974;2024-01-30T09:33:34;8.60;99.90
52107;DHT22;38105;52.968;5.974;2024-01-30T09:36:01;8.60;99.90
52107;DHT22;38105;52.968;5.974;2024-01-30T09:38:27;8.90;99.90
52107;DHT22;38105;52.968;5.974;2024-01-30T09:40:53;8.70;99.90
52107;DHT22;38105;52.968;5.974;2024-01-30T09:43:22;9.00;99.90
52107;DHT22;38105;52.968;5.974;2024-01-30T09:45:48;9.00;99.90
52107;DHT22;38105;52.968;5.974;2024-01-30T09:48:15;9.10;99.90
52107;DHT22;38105;52.968;5.974;2024-01-30T09:50:40;9.10;99.90
52107;DHT22;38105;52.968;5.974;2024-01-30T09:53:07;8.90;99.90
52107;DHT22;38105;52.968;5.974;2024-01-30T09:55:33;8.90;99.90
52107;DHT22;38105;52.968;5.974;2024-01-30T09:58:00;9.10;99.90
52107;DHT22;38105;52.968;5.974;2024-01-30T10:00:25;9.10;99.90
52107;DHT22;38105;52.968;5.974;2024-01-30T10:02:52;9.00;99.90
52107;DHT22;38105;52.968;5.974;2024-01-30T10:05:19;9.10;99.90
52107;DHT22;38105;52.968;5.974;2024-01-30T10:07:54;9.00;99.90
52107;DHT22;38105;52.968;5.974;2024-01-30T10:10:23;9.10;99.90
52107;DHT22;38105;52.968;5.974;2024-01-30T10:12:49;9.00;99.90
52107;DHT22;38105;52.968;5.974;2024-01-30T10:15:14;9.10;99.90
52107;DHT22;38105;52.968;5.974;2024-01-30T10:17:40;9.20;99.90
52107;DHT22;38105;52.968;5.974;2024-01-30T10:20:06;9.40;99.90
52107;DHT22;38105;52.968;5.974;2024-01-30T10:22:33;9.50;99.90
52107;DHT22;38105;52.968;5.974;2024-01-30T10:24:59;9.40;99.90
52107;DHT22;38105;52.968;5.974;2024-01-30T10:27:25;9.60;99.90
52107;DHT22;38105;52.968;5.974;2024-01-30T10:29:52;9.60;99.90
52107;DHT22;38105;52.968;5.974;2024-01-30T10:32:17;9.60;99.90
52107;DHT22;38105;52.968;5.974;2024-01-30T10:34:43;9.60;99.90
52107;DHT22;38105;52.968;5.974;2024-01-30T10:37:09;9.50;99.90
52107;DHT22;38105;52.968;5.974;2024-01-30T10:39:40;9.50;99.90
52107;DHT22;38105;52.968;5.974;2024-01-30T10:42:07;9.60;99.90
52107;DHT22;38105;52.968;5.974;2024-01-30T10:44:48;9.70;99.90
52107;DHT22;38105;52.968;5.974;2024-01-30T10:47:27;9.60;99.90
52107;DHT22;38105;52.968;5.974;2024-01-30T10:49:53;9.60;99.90
52107;DHT22;38105;52.968;5.974;2024-01-30T10:52:19;9.60;99.90
52107;DHT22;38105;52.968;5.974;2024-01-30T10:54:45;9.60;99.90
52107;DHT22;38105;52.968;5.974;2024-01-30T10:57:11;9.50;99.90
52107;DHT22;38105;52.968;5.974;2024-01-30T10:59:38;9.60;99.90
52107;DHT22;38105;52.968;5.974;2024-01-30T11:02:04;9.50;99.90
52107;DHT22;38105;52.968;5.974;2024-01-30T11:04:36;9.60;99.90
52107;DHT22;38105;52.968;5.974;2024-01-30T11:07:02;9.60;99.90
52107;DHT22;38105;52.968;5.974;2024-01-30T11:09:29;9.40;99.90
52107;DHT22;38105;52.968;5.974;2024-01-30T11:11:58;9.50;99.90
52107;DHT22;38105;52.968;5.974;2024-01-30T11:14:27;9.60;99.90
52107;DHT22;38105;52.968;5.974;2024-01-30T11:16:56;9.50;99.90
52107;DHT22;38105;52.968;5.974;2024-01-30T11:19:22;9.60;99.90
52107;DHT22;38105;52.968;5.974;2024-01-30T11:21:50;9.60;99.90
52107;DHT22;38105;52.968;5.974;2024-01-30T11:24:16;9.50;99.90
52107;DHT22;38105;52.968;5.974;2024-01-30T11:26:42;9.50;99.90
52107;DHT22;38105;52.968;5.974;2024-01-30T11:29:07;9.50;99.90
52107;DHT22;38105;52.968;5.974;2024-01-30T11:31:34;9.50;99.90
52107;DHT22;38105;52.968;5.974;2024-01-30T11:34:00;9.40;99.90
52107;DHT22;38105;52.968;5.974;2024-01-30T11:36:26;9.50;99.90
52107;DHT22;38105;52.968;5.974;2024-01-30T11:38:54;9.50;99.90
52107;DHT22;38105;52.968;5.974;2024-01-30T11:41:20;9.60;99.90
52107;DHT22;38105;52.968;5.974;2024-01-30T11:43:52;9.60;99.90
52107;DHT22;38105;52.968;5.974;2024-01-30T11:46:18;9.80;99.90
52107;DHT22;38105;52.968;5.974;2024-01-30T11:48:44;9.90;99.90
52107;DHT22;38105;52.968;5.974;2024-01-30T11:51:10;9.80;99.90
52107;DHT22;38105;52.968;5.974;2024-01-30T11:53:37;9.90;99.90
52107;DHT22;38105;52.968;5.974;2024-01-30T11:56:02;9.80;99.90
52107;DHT22;38105;52.968;5.974;2024-01-30T11:58:31;10.00;99.90
52107;DHT22;38105;52.968;5.974;2024-01-30T12:00:56;9.90;99.90
52107;DHT22;38105;52.968;5.974;2024-01-30T12:03:22;9.90;99.90
52107;DHT22;38105;52.968;5.974;2024-01-30T12:05:54;9.70;99.90
52107;DHT22;38105;52.968;5.974;2024-01-30T12:08:20;9.70;99.90
52107;DHT22;38105;52.968;5.974;2024-01-30T12:10:46;9.70;99.90
52107;DHT22;38105;52.968;5.974;2024-01-30T12:13:11;9.50;99.90
52107;DHT22;38105;52.968;5.974;2024-01-30T12:15:37;9.50;99.90
52107;DHT22;38105;52.968;5.974;2024-01-30T12:18:03;9.60;99.90
52107;DHT22;38105;52.968;5.974;2024-01-30T12:20:29;9.40;99.90
52107;DHT22;38105;52.968;5.974;2024-01-30T12:22:55;9.50;99.90
52107;DHT22;38105;52.968;5.974;2024-01-30T12:25:20;9.30;99.90
52107;DHT22;38105;52.968;5.974;2024-01-30T12:27:47;9.30;99.90
52107;DHT22;38105;52.968;5.974;2024-01-30T12:30:15;9.50;99.90
52107;DHT22;38105;52.968;5.974;2024-01-30T12:32:42;9.40;99.90
52107;DHT22;38105;52.968;5.974;2024-01-30T12:35:09;9.40;99.90
52107;DHT22;38105;52.968;5.974;2024-01-30T12:37:35;9.50;99.90
52107;DHT22;38105;52.968;5.974;2024-01-30T12:40:01;9.50;99.90
52107;DHT22;38105;52.968;5.974;2024-01-30T12:42:27;9.50;99.90
52107;DHT22;38105;52.968;5.974;2024-01-30T12:44:53;9.50;99.90
52107;DHT22;38105;52.968;5.974;2024-01-30T12:47:20;9.50;99.90
52107;DHT22;38105;52.968;5.974;2024-01-30T12:49:46;9.50;99.90
52107;DHT22;38105;52.968;5.974;2024-01-30T12:52:12;9.60;99.90
52107;DHT22;38105;52.968;5.974;2024-01-30T12:54:38;9.60;99.90
52107;DHT22;38105;52.968;5.974;2024-01-30T12:57:04;9.70;99.90
52107;DHT22;38105;52.968;5.974;2024-01-30T12:59:30;9.50;99.90
52107;DHT22;38105;52.968;5.974;2024-01-30T13:01:56;9.50;99.90
52107;DHT22;38105;52.968;5.974;2024-01-30T13:04:22;9.50;99.90
52107;DHT22;38105;52.968;5.974;2024-01-30T13:06:47;9.60;99.90
52107;DHT22;38105;52.968;5.974;2024-01-30T13:09:13;9.50;99.90
52107;DHT22;38105;52.968;5.974;2024-01-30T13:11:38;9.50;99.90
52107;DHT22;38105;52.968;5.974;2024-01-30T13:14:04;9.50;99.90
52107;DHT22;38105;52.968;5.974;2024-01-30T13:16:29;9.50;99.90
52107;DHT22;38105;52.968;5.974;2024-01-30T13:18:55;9.40;99.90
52107;DHT22;38105;52.968;5.974;2024-01-30T13:21:21;9.30;99.90
52107;DHT22;38105;52.968;5.974;2024-01-30T13:23:46;9.30;99.90
52107;DHT22;38105;52.968;5.974;2024-01-30T13:26:13;9.30;99.90
52107;DHT22;38105;52.968;5.974;2024-01-30T13:28:38;9.00;99.90
52107;DHT22;38105;52.968;5.974;2024-01-30T13:31:04;9.10;99.90
52107;DHT22;38105;52.968;5.974;2024-01-30T13:33:30;9.10;99.90
52107;DHT22;38105;52.968;5.974;2024-01-30T13:35:56;9.10;99.90
52107;DHT22;38105;52.968;5.974;2024-01-30T13:38:21;9.10;99.90
52107;DHT22;38105;52.968;5.974;2024-01-30T13:40:47;8.80;99.90
52107;DHT22;38105;52.968;5.974;2024-01-30T13:43:12;8.90;99.90
52107;DHT22;38105;52.968;5.974;2024-01-30T13:45:38;8.80;99.90
52107;DHT22;38105;52.968;5.974;2024-01-30T13:48:03;8.70;99.90
52107;DHT22;38105;52.968;5.974;2024-01-30T13:50:29;8.50;99.90
52107;DHT22;38105;52.968;5.974;2024-01-30T13:52:55;8.30;99.90
52107;DHT22;38105;52.968;5.974;2024-01-30T13:55:23;8.50;99.90
52107;DHT22;38105;52.968;5.974;2024-01-30T13:57:49;8.50;99.90
52107;DHT22;38105;52.968;5.974;2024-01-30T14:00:14;8.50;99.90
52107;DHT22;38105;52.968;5.974;2024-01-30T14:02:42;8.20;99.90
52107;DHT22;38105;52.968;5.974;2024-01-30T14:05:08;8.30;99.90
52107;DHT22;38105;52.968;5.974;2024-01-30T14:07:35;8.20;99.90
52107;DHT22;38105;52.968;5.974;2024-01-30T14:10:00;8.50;99.90
52107;DHT22;38105;52.968;5.974;2024-01-30T14:12:26;8.20;99.90
52107;DHT22;38105;52.968;5.974;2024-01-30T14:14:51;8.40;99.90
52107;DHT22;38105;52.968;5.974;2024-01-30T14:17:17;8.40;99.90
52107;DHT22;38105;52.968;5.974;2024-01-30T14:19:42;8.20;99.90
52107;DHT22;38105;52.968;5.974;2024-01-30T14:22:08;8.30;99.90
52107;DHT22;38105;52.968;5.974;2024-01-30T14:24:33;8.40;99.90
52107;DHT22;38105;52.968;5.974;2024-01-30T14:26:59;8.10;99.90
52107;DHT22;38105;52.968;5.974;2024-01-30T14:29:25;8.20;99.90
52107;DHT22;38105;52.968;5.974;2024-01-30T14:31:51;8.20;99.90
52107;DHT22;38105;52.968;5.974;2024-01-30T14:34:16;8.20;99.90
52107;DHT22;38105;52.968;5.974;2024-01-30T14:36:42;8.40;99.90
52107;DHT22;38105;52.968;5.974;2024-01-30T14:39:08;8.40;99.90
52107;DHT22;38105;52.968;5.974;2024-01-30T14:41:33;8.40;99.90
52107;DHT22;38105;52.968;5.974;2024-01-30T14:43:59;8.20;99.90
52107;DHT22;38105;52.968;5.974;2024-01-30T14:46:24;8.10;99.90
52107;DHT22;38105;52.968;5.974;2024-01-30T14:48:52;8.20;99.90
52107;DHT22;38105;52.968;5.974;2024-01-30T14:51:17;8.30;99.90
52107;DHT22;38105;52.968;5.974;2024-01-30T14:53:43;8.40;99.90
52107;DHT22;38105;52.968;5.974;2024-01-30T14:56:08;7.90;99.90
52107;DHT22;38105;52.968;5.974;2024-01-30T14:58:34;8.10;99.90
52107;DHT22;38105;52.968;5.974;2024-01-30T15:01:00;7.80;99.90
52107;DHT22;38105;52.968;5.974;2024-01-30T15:03:26;7.90;99.90
52107;DHT22;38105;52.968;5.974;2024-01-30T15:05:52;7.90;99.90
52107;DHT22;38105;52.968;5.974;2024-01-30T15:08:20;8.30;99.90
52107;DHT22;38105;52.968;5.974;2024-01-30T15:10:45;8.20;99.90
52107;DHT22;38105;52.968;5.974;2024-01-30T15:13:11;7.80;99.90
52107;DHT22;38105;52.968;5.974;2024-01-30T15:15:37;7.80;99.90
52107;DHT22;38105;52.968;5.974;2024-01-30T15:18:03;7.90;99.90
52107;DHT22;38105;52.968;5.974;2024-01-30T15:20:28;7.80;99.90
52107;DHT22;38105;52.968;5.974;2024-01-30T15:22:54;7.90;99.90
52107;DHT22;38105;52.968;5.974;2024-01-30T15:25:19;8.00;99.90
52107;DHT22;38105;52.968;5.974;2024-01-30T15:27:45;7.70;99.90
52107;DHT22;38105;52.968;5.974;2024-01-30T15:30:11;7.70;99.90
52107;DHT22;38105;52.968;5.974;2024-01-30T15:32:37;7.70;99.90
52107;DHT22;38105;52.968;5.974;2024-01-30T15:35:02;7.70;99.90
52107;DHT22;38105;52.968;5.974;2024-01-30T15:37:29;7.80;99.90
52107;DHT22;38105;52.968;5.974;2024-01-30T15:39:54;7.80;99.90
52107;DHT22;38105;52.968;5.974;2024-01-30T15:42:20;7.60;99.90
52107;DHT22;38105;52.968;5.974;2024-01-30T15:44:45;7.80;99.90